<?xml version='1.0' encoding='UTF-8'?><gpx version="1.1" creator="JPX - https://github.com/jenetics/jpx" xmlns="http://www.topografix.com/GPX/1/1"><trk><trkseg><trkpt lat="45.91125412197489" lon="10.812377757875172"><ele>687.0</ele><time>2026-03-28T11:26:49.002Z</time></trkpt><trkpt lat="45.91125858377929" lon="10.812285937549728"><ele>687.0</ele><time>2026-03-28T11:26:55.002Z</time></trkpt><trkpt lat="45.91124895081521" lon="10.81237962323435"><ele>687.0</ele><time>2026-03-28T11:27:12.999Z</time></trkpt><trkpt lat="45.91120873826554" lon="10.812462422914402"><ele>687.0</ele><time>2026-03-28T11:27:19Z</time></trkpt><trkpt lat="45.911234894724274" lon="10.812371299284122"><ele>687.0</ele><time>2026-03-28T11:27:46.001Z</time></trkpt><trkpt lat="45.911239659054495" lon="10.812272807554464"><ele>687.0</ele><time>2026-03-28T11:27:50.001Z</time></trkpt><trkpt lat="45.911273373257984" lon="10.81218348541731"><ele>687.0</ele><time>2026-03-28T11:27:56.001Z</time></trkpt><trkpt lat="45.91129876636524" lon="10.812098765703958"><ele>687.0</ele><time>2026-03-28T11:28:00.001Z</time></trkpt><trkpt lat="45.91129097901465" lon="10.81200177791727"><ele>687.0</ele><time>2026-03-28T11:28:05.001Z</time></trkpt><trkpt lat="45.9112896797535" lon="10.811900857170476"><ele>687.0</ele><time>2026-03-28T11:28:11.001Z</time></trkpt><trkpt lat="45.91128631877483" lon="10.811805711256186"><ele>687.0</ele><time>2026-03-28T11:28:16.001Z</time></trkpt><trkpt lat="45.911285031870804" lon="10.811699503757373"><ele>687.0</ele><time>2026-03-28T11:28:22.002Z</time></trkpt><trkpt lat="45.9112773052321" lon="10.811598289623328"><ele>687.0</ele><time>2026-03-28T11:28:28.002Z</time></trkpt><trkpt lat="45.911254563730516" lon="10.811494104919863"><ele>687.0</ele><time>2026-03-28T11:28:34.002Z</time></trkpt><trkpt lat="45.91121721074354" lon="10.811405452902966"><ele>687.2857142857143</ele><time>2026-03-28T11:28:39.002Z</time></trkpt><trkpt lat="45.91121116064861" lon="10.811311012846527"><ele>687.5714285714286</ele><time>2026-03-28T11:28:47.002Z</time></trkpt><trkpt lat="45.911232174355014" lon="10.811210362945308"><ele>687.8571428571429</ele><time>2026-03-28T11:28:51.002Z</time></trkpt><trkpt lat="45.9112451386609" lon="10.811103089340872"><ele>688.1428571428571</ele><time>2026-03-28T11:28:57.003Z</time></trkpt><trkpt lat="45.911258272775264" lon="10.811009482955534"><ele>688.4285714285714</ele><time>2026-03-28T11:29:02.003Z</time></trkpt><trkpt lat="45.91126737127625" lon="10.81089735879954"><ele>688.7142857142857</ele><time>2026-03-28T11:29:08.003Z</time></trkpt><trkpt lat="45.91127586319666" lon="10.810791812388274"><ele>689.0</ele><time>2026-03-28T11:29:14.001Z</time></trkpt><trkpt lat="45.91128770547923" lon="10.810696676715192"><ele>689.0</ele><time>2026-03-28T11:29:19.001Z</time></trkpt><trkpt lat="45.911296873004474" lon="10.810590447276562"><ele>689.0</ele><time>2026-03-28T11:29:25.001Z</time></trkpt><trkpt lat="45.91131833937703" lon="10.810490892953563"><ele>689.0</ele><time>2026-03-28T11:29:31.001Z</time></trkpt><trkpt lat="45.91133177942825" lon="10.810395001103755"><ele>689.0</ele><time>2026-03-28T11:29:37.001Z</time></trkpt><trkpt lat="45.911346029032664" lon="10.8102962579908"><ele>689.0</ele><time>2026-03-28T11:29:43.001Z</time></trkpt><trkpt lat="45.9113501700566" lon="10.810204284240479"><ele>689.0</ele><time>2026-03-28T11:29:48.001Z</time></trkpt><trkpt lat="45.91136872724761" lon="10.810100856797323"><ele>689.0</ele><time>2026-03-28T11:29:54.001Z</time></trkpt><trkpt lat="45.911376831148516" lon="10.809995375640908"><ele>689.1428571428571</ele><time>2026-03-28T11:30:00.001Z</time></trkpt><trkpt lat="45.911383384246896" lon="10.809896167220167"><ele>689.2857142857143</ele><time>2026-03-28T11:30:06.001Z</time></trkpt><trkpt lat="45.9113950129955" lon="10.809799138788708"><ele>689.4285714285714</ele><time>2026-03-28T11:30:11.002Z</time></trkpt><trkpt lat="45.911407782324794" lon="10.809709226981898"><ele>689.5714285714286</ele><time>2026-03-28T11:30:17.002Z</time></trkpt><trkpt lat="45.91141653135561" lon="10.809616550437307"><ele>689.7142857142857</ele><time>2026-03-28T11:30:23.002Z</time></trkpt><trkpt lat="45.91142674777164" lon="10.80951749752692"><ele>689.8571428571429</ele><time>2026-03-28T11:30:29.002Z</time></trkpt><trkpt lat="45.91143781018112" lon="10.809425660866157"><ele>690.0</ele><time>2026-03-28T11:30:35.002Z</time></trkpt><trkpt lat="45.91143544670604" lon="10.809323823422273"><ele>690.0</ele><time>2026-03-28T11:30:41.002Z</time></trkpt><trkpt lat="45.91142599373187" lon="10.80920447251575"><ele>690.0</ele><time>2026-03-28T11:30:48.003Z</time></trkpt><trkpt lat="45.91142157590104" lon="10.809109490307419"><ele>690.0</ele><time>2026-03-28T11:30:54.003Z</time></trkpt><trkpt lat="45.911409502126624" lon="10.80900937855204"><ele>690.0</ele><time>2026-03-28T11:31:00.003Z</time></trkpt><trkpt lat="45.91139112332835" lon="10.808907216461934"><ele>690.0</ele><time>2026-03-28T11:31:06.003Z</time></trkpt><trkpt lat="45.91137766500313" lon="10.808805197058915"><ele>690.0</ele><time>2026-03-28T11:31:12.003Z</time></trkpt><trkpt lat="45.91139847574502" lon="10.808705985085"><ele>690.0</ele><time>2026-03-28T11:31:18.003Z</time></trkpt><trkpt lat="45.91144350954337" lon="10.808612644922361"><ele>690.0</ele><time>2026-03-28T11:31:25Z</time></trkpt><trkpt lat="45.91150874482049" lon="10.808545881499988"><ele>690.0</ele><time>2026-03-28T11:31:31Z</time></trkpt><trkpt lat="45.911537927473766" lon="10.808455657682737"><ele>690.0</ele><time>2026-03-28T11:31:38Z</time></trkpt><trkpt lat="45.91155340054696" lon="10.808348198098368"><ele>690.0</ele><time>2026-03-28T11:31:44Z</time></trkpt><trkpt lat="45.9115771454208" lon="10.808252264060688"><ele>690.0</ele><time>2026-03-28T11:31:49Z</time></trkpt><trkpt lat="45.911600217955" lon="10.808165447815112"><ele>690.0</ele><time>2026-03-28T11:32:02.001Z</time></trkpt><trkpt lat="45.91166040217108" lon="10.808113019933787"><ele>690.0</ele><time>2026-03-28T11:32:08.001Z</time></trkpt><trkpt lat="45.91170833514662" lon="10.808051433568473"><ele>694.2857142857143</ele><time>2026-03-28T11:32:13.001Z</time></trkpt><trkpt lat="45.911752704627645" lon="10.807985333873654"><ele>698.5714285714286</ele><time>2026-03-28T11:32:18.001Z</time></trkpt><trkpt lat="45.911792975898095" lon="10.807914383571449"><ele>702.8571428571429</ele><time>2026-03-28T11:32:25.001Z</time></trkpt><trkpt lat="45.91185678799934" lon="10.807869762410737"><ele>707.1428571428571</ele><time>2026-03-28T11:32:30.001Z</time></trkpt><trkpt lat="45.911910131368955" lon="10.807795066505355"><ele>711.4285714285714</ele><time>2026-03-28T11:32:35.002Z</time></trkpt><trkpt lat="45.91195413706614" lon="10.807707081399546"><ele>715.7142857142857</ele><time>2026-03-28T11:32:41.002Z</time></trkpt><trkpt lat="45.91199937389867" lon="10.807637730945247"><ele>720.0</ele><time>2026-03-28T11:32:46.002Z</time></trkpt><trkpt lat="45.91203441400303" lon="10.807539489434129"><ele>720.0</ele><time>2026-03-28T11:32:52.002Z</time></trkpt><trkpt lat="45.912057775165344" lon="10.80744012601963"><ele>720.0</ele><time>2026-03-28T11:32:58.002Z</time></trkpt><trkpt lat="45.91210971908518" lon="10.807359598182446"><ele>720.0</ele><time>2026-03-28T11:33:04.002Z</time></trkpt><trkpt lat="45.91215818950966" lon="10.807290014249604"><ele>720.0</ele><time>2026-03-28T11:33:09.003Z</time></trkpt><trkpt lat="45.91220472931695" lon="10.807222022279424"><ele>720.0</ele><time>2026-03-28T11:33:17.003Z</time></trkpt><trkpt lat="45.912237767525596" lon="10.80713313658928"><ele>720.0</ele><time>2026-03-28T11:33:22.003Z</time></trkpt><trkpt lat="45.91226613023199" lon="10.80704271977258"><ele>720.0</ele><time>2026-03-28T11:33:27Z</time></trkpt><trkpt lat="45.91230472608911" lon="10.806958627728713"><ele>720.0</ele><time>2026-03-28T11:33:33Z</time></trkpt><trkpt lat="45.91234127880112" lon="10.806866701972346"><ele>720.0</ele><time>2026-03-28T11:33:39Z</time></trkpt><trkpt lat="45.912375215154206" lon="10.806781587303856"><ele>720.0</ele><time>2026-03-28T11:33:45Z</time></trkpt><trkpt lat="45.91240996079531" lon="10.806697205013064"><ele>720.0</ele><time>2026-03-28T11:33:51Z</time></trkpt><trkpt lat="45.91245224754063" lon="10.806624053751746"><ele>720.0</ele><time>2026-03-28T11:33:57Z</time></trkpt><trkpt lat="45.91252469416415" lon="10.806613173923775"><ele>720.0</ele><time>2026-03-28T11:34:01.001Z</time></trkpt><trkpt lat="45.9126172397602" lon="10.806640967320774"><ele>720.0</ele><time>2026-03-28T11:34:04.001Z</time></trkpt><trkpt lat="45.912672499777564" lon="10.806586208823099"><ele>724.5714285714286</ele><time>2026-03-28T11:34:08.001Z</time></trkpt><trkpt lat="45.91272588989903" lon="10.806505421254187"><ele>729.1428571428572</ele><time>2026-03-28T11:34:12.001Z</time></trkpt><trkpt lat="45.91277142442122" lon="10.806441869676078"><ele>733.7142857142858</ele><time>2026-03-28T11:34:16.001Z</time></trkpt><trkpt lat="45.91281987681568" lon="10.806360487311323"><ele>738.2857142857142</ele><time>2026-03-28T11:34:22.001Z</time></trkpt><trkpt lat="45.91286369547316" lon="10.806269612932269"><ele>742.8571428571429</ele><time>2026-03-28T11:34:28.001Z</time></trkpt><trkpt lat="45.912907018508456" lon="10.80619632022669"><ele>747.4285714285714</ele><time>2026-03-28T11:34:33.001Z</time></trkpt><trkpt lat="45.91294727692896" lon="10.806124137632102"><ele>752.0</ele><time>2026-03-28T11:34:38.002Z</time></trkpt><trkpt lat="45.912986392224965" lon="10.806048211470424"><ele>749.4285714285714</ele><time>2026-03-28T11:34:44.002Z</time></trkpt><trkpt lat="45.91302072533877" lon="10.805964369628262"><ele>746.8571428571429</ele><time>2026-03-28T11:34:50.002Z</time></trkpt><trkpt lat="45.91305792811668" lon="10.805873526947348"><ele>744.2857142857142</ele><time>2026-03-28T11:34:56.002Z</time></trkpt><trkpt lat="45.913087209290744" lon="10.805776655914778"><ele>741.7142857142858</ele><time>2026-03-28T11:35:03.002Z</time></trkpt><trkpt lat="45.913124100205636" lon="10.805696993688636"><ele>739.1428571428572</ele><time>2026-03-28T11:35:10.002Z</time></trkpt><trkpt lat="45.91315882397229" lon="10.805608750668664"><ele>736.5714285714286</ele><time>2026-03-28T11:35:15.003Z</time></trkpt><trkpt lat="45.913207309015064" lon="10.805536164808672"><ele>734.0</ele><time>2026-03-28T11:35:20.003Z</time></trkpt><trkpt lat="45.91321728570583" lon="10.805434742101257"><ele>734.0</ele><time>2026-03-28T11:35:26.003Z</time></trkpt><trkpt lat="45.91323882149719" lon="10.805348621979835"><ele>734.0</ele><time>2026-03-28T11:35:31.001Z</time></trkpt><trkpt lat="45.91324233021638" lon="10.805247243152799"><ele>734.0</ele><time>2026-03-28T11:35:37.001Z</time></trkpt><trkpt lat="45.91326630770926" lon="10.805162140080443"><ele>734.0</ele><time>2026-03-28T11:35:42.001Z</time></trkpt><trkpt lat="45.913302148108855" lon="10.805072799183861"><ele>734.0</ele><time>2026-03-28T11:35:48.001Z</time></trkpt><trkpt lat="45.91335087722247" lon="10.804990668934838"><ele>734.0</ele><time>2026-03-28T11:35:53.001Z</time></trkpt><trkpt lat="45.913399631250904" lon="10.80491251347902"><ele>734.0</ele><time>2026-03-28T11:35:58.001Z</time></trkpt><trkpt lat="45.913472475659376" lon="10.80488004083494"><ele>737.7142857142857</ele><time>2026-03-28T11:36:04.001Z</time></trkpt><trkpt lat="45.91353528713681" lon="10.804855008580253"><ele>741.4285714285714</ele><time>2026-03-28T11:36:10.001Z</time></trkpt><trkpt lat="45.91359138547194" lon="10.804813134521913"><ele>745.1428571428571</ele><time>2026-03-28T11:36:15.001Z</time></trkpt><trkpt lat="45.91364261840805" lon="10.804754468826571"><ele>748.8571428571429</ele><time>2026-03-28T11:36:23.001Z</time></trkpt><trkpt lat="45.91369991132587" lon="10.804695983713701"><ele>752.5714285714287</ele><time>2026-03-28T11:36:29.002Z</time></trkpt><trkpt lat="45.913759176549945" lon="10.804644158900402"><ele>756.2857142857143</ele><time>2026-03-28T11:36:33.002Z</time></trkpt><trkpt lat="45.9138102454567" lon="10.804579396855058"><ele>760.0</ele><time>2026-03-28T11:36:37.002Z</time></trkpt><trkpt lat="45.913858622498005" lon="10.80449963077309"><ele>760.0</ele><time>2026-03-28T11:36:45.002Z</time></trkpt><trkpt lat="45.91387855558077" lon="10.804393985013492"><ele>760.0</ele><time>2026-03-28T11:36:51.002Z</time></trkpt><trkpt lat="45.91391142997862" lon="10.804314144511634"><ele>760.0</ele><time>2026-03-28T11:36:57.002Z</time></trkpt><trkpt lat="45.9139416820735" lon="10.80421898481456"><ele>760.0</ele><time>2026-03-28T11:37:04.002Z</time></trkpt><trkpt lat="45.91396541661156" lon="10.804117425924016"><ele>760.0</ele><time>2026-03-28T11:37:13.003Z</time></trkpt><trkpt lat="45.91401627055925" lon="10.804044746854512"><ele>760.0</ele><time>2026-03-28T11:37:18.003Z</time></trkpt><trkpt lat="45.91407312819187" lon="10.803996721231917"><ele>760.0</ele><time>2026-03-28T11:37:25.003Z</time></trkpt><trkpt lat="45.9141400404505" lon="10.803984563936115"><ele>757.2857142857143</ele><time>2026-03-28T11:37:40.003Z</time></trkpt><trkpt lat="45.914200155002455" lon="10.803928047694658"><ele>754.5714285714287</ele><time>2026-03-28T11:37:45.003Z</time></trkpt><trkpt lat="45.91425808126446" lon="10.803876039954535"><ele>751.8571428571429</ele><time>2026-03-28T11:37:48.003Z</time></trkpt><trkpt lat="45.91433798057185" lon="10.803820501002257"><ele>749.1428571428571</ele><time>2026-03-28T11:37:55.002Z</time></trkpt><trkpt lat="45.914380877004156" lon="10.803739865397306"><ele>746.4285714285714</ele><time>2026-03-28T11:38:01.002Z</time></trkpt><trkpt lat="45.914433004190755" lon="10.803675431819762"><ele>743.7142857142857</ele><time>2026-03-28T11:38:07.002Z</time></trkpt><trkpt lat="45.91445932293304" lon="10.803589870041284"><ele>741.0</ele><time>2026-03-28T11:38:14.002Z</time></trkpt><trkpt lat="45.91449302490125" lon="10.80350965295851"><ele>746.1428571428571</ele><time>2026-03-28T11:38:22.002Z</time></trkpt><trkpt lat="45.914543323360654" lon="10.803430528309178"><ele>751.2857142857143</ele><time>2026-03-28T11:38:29.002Z</time></trkpt><trkpt lat="45.91456486835522" lon="10.803330445510557"><ele>756.4285714285714</ele><time>2026-03-28T11:38:37.002Z</time></trkpt><trkpt lat="45.9146059501145" lon="10.803247973236456"><ele>761.5714285714286</ele><time>2026-03-28T11:38:42.002Z</time></trkpt><trkpt lat="45.914650405554404" lon="10.803169876386079"><ele>766.7142857142858</ele><time>2026-03-28T11:38:48.002Z</time></trkpt><trkpt lat="45.91469208946618" lon="10.803101795657359"><ele>771.8571428571429</ele><time>2026-03-28T11:38:54.002Z</time></trkpt><trkpt lat="45.914719294860795" lon="10.802982159809632"><ele>777.0</ele><time>2026-03-28T11:39:24.003Z</time></trkpt><trkpt lat="45.914759627286244" lon="10.802906155433767"><ele>777.0</ele><time>2026-03-28T11:39:29.003Z</time></trkpt><trkpt lat="45.91479624990786" lon="10.802826400897315"><ele>777.0</ele><time>2026-03-28T11:39:36.003Z</time></trkpt><trkpt lat="45.91481710564627" lon="10.80274022707524"><ele>777.0</ele><time>2026-03-28T11:39:40.003Z</time></trkpt><trkpt lat="45.91483975359863" lon="10.802654345200127"><ele>777.0</ele><time>2026-03-28T11:39:45.003Z</time></trkpt><trkpt lat="45.91486169475755" lon="10.802567469234024"><ele>777.0</ele><time>2026-03-28T11:39:52.003Z</time></trkpt><trkpt lat="45.91489081926203" lon="10.8024818079409"><ele>777.0</ele><time>2026-03-28T11:39:59.002Z</time></trkpt><trkpt lat="45.91492635621369" lon="10.802382210368142"><ele>777.0</ele><time>2026-03-28T11:40:05.002Z</time></trkpt><trkpt lat="45.91497051087165" lon="10.802287610643642"><ele>775.0</ele><time>2026-03-28T11:40:12.002Z</time></trkpt><trkpt lat="45.914995683591876" lon="10.802178255560854"><ele>773.0</ele><time>2026-03-28T11:40:18.002Z</time></trkpt><trkpt lat="45.91503360858387" lon="10.80209175827535"><ele>771.0</ele><time>2026-03-28T11:40:24.002Z</time></trkpt><trkpt lat="45.91507884445648" lon="10.802013137410254"><ele>769.0</ele><time>2026-03-28T11:40:36.002Z</time></trkpt><trkpt lat="45.91510509166667" lon="10.80192420835972"><ele>767.0</ele><time>2026-03-28T11:40:42.002Z</time></trkpt><trkpt lat="45.91518906816731" lon="10.80181351448865"><ele>765.0</ele><time>2026-03-28T11:41:01.002Z</time></trkpt><trkpt lat="45.91519983642519" lon="10.801721529436048"><ele>768.8571428571429</ele><time>2026-03-28T11:41:42.002Z</time></trkpt><trkpt lat="45.91526002374202" lon="10.801670958245314"><ele>772.7142857142858</ele><time>2026-03-28T11:41:53.002Z</time></trkpt><trkpt lat="45.915314531576755" lon="10.801621528931639"><ele>776.5714285714287</ele><time>2026-03-28T11:42:00.002Z</time></trkpt><trkpt lat="45.91536940334036" lon="10.801567374194736"><ele>780.4285714285714</ele><time>2026-03-28T11:42:06.002Z</time></trkpt><trkpt lat="45.915430277856345" lon="10.801505209879625"><ele>784.2857142857142</ele><time>2026-03-28T11:42:13.001Z</time></trkpt><trkpt lat="45.9154795735996" lon="10.801434210200886"><ele>788.1428571428572</ele><time>2026-03-28T11:42:20.001Z</time></trkpt><trkpt lat="45.91552964840325" lon="10.80137633172695"><ele>792.0</ele><time>2026-03-28T11:42:26.001Z</time></trkpt><trkpt lat="45.91558760553535" lon="10.801317295503667"><ele>792.0</ele><time>2026-03-28T11:42:34.001Z</time></trkpt><trkpt lat="45.91564505791815" lon="10.801253029532125"><ele>792.0</ele><time>2026-03-28T11:42:41.001Z</time></trkpt><trkpt lat="45.915690110398586" lon="10.801180205779191"><ele>792.0</ele><time>2026-03-28T11:42:47.001Z</time></trkpt><trkpt lat="45.91573534079736" lon="10.801104600198787"><ele>792.0</ele><time>2026-03-28T11:42:54.001Z</time></trkpt><trkpt lat="45.91577979011598" lon="10.80103197567745"><ele>792.0</ele><time>2026-03-28T11:43:01.001Z</time></trkpt><trkpt lat="45.915829561422846" lon="10.800975502481322"><ele>792.0</ele><time>2026-03-28T11:43:07.001Z</time></trkpt><trkpt lat="45.91588951569204" lon="10.800932817304416"><ele>792.0</ele><time>2026-03-28T11:43:12.001Z</time></trkpt><trkpt lat="45.91594901629461" lon="10.800885308453532"><ele>795.4285714285714</ele><time>2026-03-28T11:43:19.001Z</time></trkpt><trkpt lat="45.91601205751379" lon="10.800839974452092"><ele>798.8571428571428</ele><time>2026-03-28T11:43:25.001Z</time></trkpt><trkpt lat="45.91605786291626" lon="10.800767354868068"><ele>802.2857142857142</ele><time>2026-03-28T11:43:32.001Z</time></trkpt><trkpt lat="45.91610122828475" lon="10.80069339335305"><ele>805.7142857142858</ele><time>2026-03-28T11:43:41.001Z</time></trkpt><trkpt lat="45.91615790630985" lon="10.800640163268106"><ele>809.1428571428571</ele><time>2026-03-28T11:43:50.001Z</time></trkpt><trkpt lat="45.91621370334238" lon="10.800580249302875"><ele>812.5714285714286</ele><time>2026-03-28T11:43:57.002Z</time></trkpt><trkpt lat="45.9162632936325" lon="10.80052431364289"><ele>816.0</ele><time>2026-03-28T11:44:03.001Z</time></trkpt><trkpt lat="45.91630841795756" lon="10.800451940252628"><ele>816.0</ele><time>2026-03-28T11:44:09.001Z</time></trkpt><trkpt lat="45.91635069147673" lon="10.800384238257404"><ele>816.0</ele><time>2026-03-28T11:44:16.001Z</time></trkpt><trkpt lat="45.91639594306924" lon="10.800319409851724"><ele>816.0</ele><time>2026-03-28T11:44:21.001Z</time></trkpt><trkpt lat="45.916441131787856" lon="10.800234259728118"><ele>816.0</ele><time>2026-03-28T11:44:44.001Z</time></trkpt><trkpt lat="45.91650330308556" lon="10.800199056275103"><ele>816.0</ele><time>2026-03-28T11:44:50Z</time></trkpt><trkpt lat="45.91658758037755" lon="10.800190778075086"><ele>816.0</ele><time>2026-03-28T11:45:04Z</time></trkpt><trkpt lat="45.9166483188449" lon="10.8001574859709"><ele>816.0</ele><time>2026-03-28T11:45:12Z</time></trkpt><trkpt lat="45.916710310266964" lon="10.80013401157009"><ele>820.2857142857143</ele><time>2026-03-28T11:45:18Z</time></trkpt><trkpt lat="45.91677432549377" lon="10.80010336405232"><ele>824.5714285714287</ele><time>2026-03-28T11:45:27Z</time></trkpt><trkpt lat="45.916844277418065" lon="10.80007005902174"><ele>828.8571428571429</ele><time>2026-03-28T11:45:34Z</time></trkpt><trkpt lat="45.91690984596095" lon="10.800031280155117"><ele>833.1428571428571</ele><time>2026-03-28T11:45:41Z</time></trkpt><trkpt lat="45.91697408418504" lon="10.799915427308006"><ele>837.4285714285714</ele><time>2026-03-28T11:46:15.001Z</time></trkpt><trkpt lat="45.917027059102914" lon="10.799862562006064"><ele>841.7142857142857</ele><time>2026-03-28T11:46:23Z</time></trkpt><trkpt lat="45.91708305825221" lon="10.799806485759627"><ele>846.0</ele><time>2026-03-28T11:46:31Z</time></trkpt><trkpt lat="45.917122826917904" lon="10.799725464411676"><ele>846.0</ele><time>2026-03-28T11:46:39Z</time></trkpt><trkpt lat="45.917170862586005" lon="10.799656437285726"><ele>846.0</ele><time>2026-03-28T11:46:46Z</time></trkpt><trkpt lat="45.91719879785101" lon="10.79956157288891"><ele>846.0</ele><time>2026-03-28T11:46:53Z</time></trkpt><trkpt lat="45.917214260272885" lon="10.799464916432651"><ele>846.0</ele><time>2026-03-28T11:47:00Z</time></trkpt><trkpt lat="45.91724891651791" lon="10.799381947358286"><ele>846.0</ele><time>2026-03-28T11:47:08Z</time></trkpt><trkpt lat="45.917262413248324" lon="10.799287758344772"><ele>846.0</ele><time>2026-03-28T11:47:16Z</time></trkpt><trkpt lat="45.91728204783143" lon="10.799198438548105"><ele>846.0</ele><time>2026-03-28T11:47:26Z</time></trkpt><trkpt lat="45.91733007623424" lon="10.79912468936554"><ele>844.7142857142857</ele><time>2026-03-28T11:47:32Z</time></trkpt><trkpt lat="45.917358097033194" lon="10.799037084165837"><ele>843.4285714285714</ele><time>2026-03-28T11:47:40Z</time></trkpt><trkpt lat="45.917403946848864" lon="10.798965465730276"><ele>842.1428571428571</ele><time>2026-03-28T11:47:48Z</time></trkpt><trkpt lat="45.91742989775714" lon="10.798871048451451"><ele>840.8571428571429</ele><time>2026-03-28T11:48:17Z</time></trkpt><trkpt lat="45.91745482160574" lon="10.798779563724588"><ele>839.5714285714287</ele><time>2026-03-28T11:48:30Z</time></trkpt><trkpt lat="45.917495895293534" lon="10.79870825685053"><ele>838.2857142857143</ele><time>2026-03-28T11:48:38Z</time></trkpt><trkpt lat="45.917522414958384" lon="10.798615709922343"><ele>837.0</ele><time>2026-03-28T11:48:45Z</time></trkpt><trkpt lat="45.917549930516486" lon="10.798530045305409"><ele>835.8571428571429</ele><time>2026-03-28T11:48:52Z</time></trkpt><trkpt lat="45.91756716106337" lon="10.79843851640442"><ele>834.7142857142858</ele><time>2026-03-28T11:49:00Z</time></trkpt><trkpt lat="45.9175914296518" lon="10.798346170544187"><ele>833.5714285714286</ele><time>2026-03-28T11:49:08Z</time></trkpt><trkpt lat="45.917621656307404" lon="10.798263210671882"><ele>832.4285714285714</ele><time>2026-03-28T11:49:17Z</time></trkpt><trkpt lat="45.91763394662193" lon="10.798172914121308"><ele>831.2857142857142</ele><time>2026-03-28T11:49:26Z</time></trkpt><trkpt lat="45.91765348601162" lon="10.798079144687604"><ele>830.1428571428571</ele><time>2026-03-28T11:49:34Z</time></trkpt><trkpt lat="45.917696674490486" lon="10.798013101346445"><ele>829.0</ele><time>2026-03-28T11:49:42Z</time></trkpt><trkpt lat="45.91773834623277" lon="10.797924969489571"><ele>838.4000000000001</ele><time>2026-03-28T11:49:54Z</time></trkpt><trkpt lat="45.917773477344554" lon="10.79784877624127"><ele>847.8</ele><time>2026-03-28T11:50:00Z</time></trkpt><trkpt lat="45.91781469474231" lon="10.797762337458003"><ele>857.1999999999999</ele><time>2026-03-28T11:50:06Z</time></trkpt><trkpt lat="45.91783382573024" lon="10.797670591493274"><ele>866.5999999999999</ele><time>2026-03-28T11:50:13Z</time></trkpt><trkpt lat="45.91786355774494" lon="10.797577268013981"><ele>876.0</ele><time>2026-03-28T11:50:26Z</time></trkpt><trkpt lat="45.91812748668586" lon="10.796627523856882"><ele>876.0</ele><time>2026-03-28T11:52:09Z</time></trkpt><trkpt lat="45.918156723166184" lon="10.796540891898752"><ele>876.0</ele><time>2026-03-28T11:52:32Z</time></trkpt><trkpt lat="45.91819570747733" lon="10.796467421155821"><ele>876.0</ele><time>2026-03-28T11:52:41Z</time></trkpt><trkpt lat="45.918243470700844" lon="10.796407144549054"><ele>876.0</ele><time>2026-03-28T11:52:48Z</time></trkpt><trkpt lat="45.91828899105486" lon="10.79633274327066"><ele>876.0</ele><time>2026-03-28T11:52:55Z</time></trkpt><trkpt lat="45.91832508968428" lon="10.796249985069053"><ele>876.0</ele><time>2026-03-28T11:53:03Z</time></trkpt><trkpt lat="45.91836945605267" lon="10.796179384845852"><ele>876.0</ele><time>2026-03-28T11:53:11Z</time></trkpt><trkpt lat="45.91842869812839" lon="10.796110150006225"><ele>879.0</ele><time>2026-03-28T11:53:19Z</time></trkpt><trkpt lat="45.918490497639546" lon="10.796062055461613"><ele>882.0</ele><time>2026-03-28T11:53:28Z</time></trkpt><trkpt lat="45.91855260110166" lon="10.796022706435776"><ele>885.0</ele><time>2026-03-28T11:53:36.999Z</time></trkpt><trkpt lat="45.918579618025454" lon="10.795926654534984"><ele>888.0</ele><time>2026-03-28T11:54:05.999Z</time></trkpt><trkpt lat="45.91863420146897" lon="10.795866489279165"><ele>891.0</ele><time>2026-03-28T11:54:13.999Z</time></trkpt><trkpt lat="45.91870127926913" lon="10.795863213798228"><ele>894.0</ele><time>2026-03-28T11:54:19.999Z</time></trkpt><trkpt lat="45.918768359462085" lon="10.79591969888987"><ele>897.0</ele><time>2026-03-28T11:54:25.999Z</time></trkpt><trkpt lat="45.918832900205516" lon="10.795920360869335"><ele>897.0</ele><time>2026-03-28T11:54:38Z</time></trkpt><trkpt lat="45.91889747413589" lon="10.7959219396716"><ele>897.0</ele><time>2026-03-28T11:54:43Z</time></trkpt><trkpt lat="45.91895778425298" lon="10.79585738139117"><ele>897.0</ele><time>2026-03-28T11:54:53Z</time></trkpt><trkpt lat="45.919024064191724" lon="10.795791110691292"><ele>897.0</ele><time>2026-03-28T11:55:03Z</time></trkpt><trkpt lat="45.91907872685406" lon="10.795735290481808"><ele>897.0</ele><time>2026-03-28T11:55:14Z</time></trkpt><trkpt lat="45.919143881763944" lon="10.79568194794426"><ele>897.0</ele><time>2026-03-28T11:55:21Z</time></trkpt><trkpt lat="45.919186586627234" lon="10.79561296402609"><ele>897.0</ele><time>2026-03-28T11:55:33Z</time></trkpt><trkpt lat="45.91925025019776" lon="10.795573768797635"><ele>903.5714285714287</ele><time>2026-03-28T11:55:43Z</time></trkpt><trkpt lat="45.91930768547053" lon="10.79553455742858"><ele>910.1428571428571</ele><time>2026-03-28T11:55:55Z</time></trkpt><trkpt lat="45.91937107784851" lon="10.795488414647211"><ele>916.7142857142858</ele><time>2026-03-28T11:56:07Z</time></trkpt><trkpt lat="45.919423748449496" lon="10.795429354114642"><ele>923.2857142857143</ele><time>2026-03-28T11:56:32Z</time></trkpt><trkpt lat="45.919486546459574" lon="10.795376297312842"><ele>929.8571428571429</ele><time>2026-03-28T11:56:38Z</time></trkpt><trkpt lat="45.919540196928665" lon="10.795310857047237"><ele>936.4285714285714</ele><time>2026-03-28T11:56:46Z</time></trkpt><trkpt lat="45.91959147175923" lon="10.795247586894924"><ele>943.0</ele><time>2026-03-28T11:56:54Z</time></trkpt><trkpt lat="45.91964874594988" lon="10.795183041292214"><ele>945.7142857142858</ele><time>2026-03-28T11:57:04Z</time></trkpt><trkpt lat="45.919715726396056" lon="10.795150199593616"><ele>948.4285714285716</ele><time>2026-03-28T11:57:11Z</time></trkpt><trkpt lat="45.91978169517811" lon="10.795139119901897"><ele>951.1428571428571</ele><time>2026-03-28T11:57:19Z</time></trkpt><trkpt lat="45.919852435157715" lon="10.795132210122219"><ele>953.8571428571429</ele><time>2026-03-28T11:57:45Z</time></trkpt><trkpt lat="45.919926135380344" lon="10.795133988886787"><ele>956.5714285714286</ele><time>2026-03-28T11:57:53Z</time></trkpt><trkpt lat="45.91999858640545" lon="10.79513588802637"><ele>959.2857142857142</ele><time>2026-03-28T11:58:01Z</time></trkpt><trkpt lat="45.92005411737364" lon="10.79508420645417"><ele>961.9999999999999</ele><time>2026-03-28T11:58:11Z</time></trkpt><trkpt lat="45.9201208061111" lon="10.795078094101347"><ele>961.9999999999999</ele><time>2026-03-28T11:58:18Z</time></trkpt><trkpt lat="45.92018312975911" lon="10.795052220763043"><ele>962.0</ele><time>2026-03-28T11:58:29Z</time></trkpt><trkpt lat="45.920249071873194" lon="10.795017300933162"><ele>961.9999999999999</ele><time>2026-03-28T11:58:36Z</time></trkpt><trkpt lat="45.920271988851844" lon="10.794928639392174"><ele>961.9999999999999</ele><time>2026-03-28T11:58:48Z</time></trkpt><trkpt lat="45.920335472380486" lon="10.794887284454637"><ele>962.0</ele><time>2026-03-28T11:58:55Z</time></trkpt><trkpt lat="45.92038210969458" lon="10.794823895676334"><ele>961.9999999999999</ele><time>2026-03-28T11:59:03Z</time></trkpt><trkpt lat="45.920418459492275" lon="10.794729051217992"><ele>961.9999999999999</ele><time>2026-03-28T11:59:11Z</time></trkpt><trkpt lat="45.92043439005301" lon="10.794634351520422"><ele>961.9999999999999</ele><time>2026-03-28T11:59:17Z</time></trkpt><trkpt lat="45.920446183764575" lon="10.794545271761963"><ele>962.0</ele><time>2026-03-28T11:59:25Z</time></trkpt><trkpt lat="45.92044242801747" lon="10.794446052860362"><ele>961.9999999999999</ele><time>2026-03-28T11:59:40Z</time></trkpt><trkpt lat="45.920464089913935" lon="10.794351425927143"><ele>961.9999999999999</ele><time>2026-03-28T11:59:47Z</time></trkpt><trkpt lat="45.92049664159838" lon="10.794272093191037"><ele>962.0</ele><time>2026-03-28T11:59:55Z</time></trkpt><trkpt lat="45.92055614913549" lon="10.794237471058047"><ele>961.9999999999999</ele><time>2026-03-28T12:00:02Z</time></trkpt><trkpt lat="45.92062089798551" lon="10.794226639174383"><ele>961.9999999999999</ele><time>2026-03-28T12:00:11Z</time></trkpt><trkpt lat="45.92068035225042" lon="10.7941893127568"><ele>960.7142857142856</ele><time>2026-03-28T12:00:27Z</time></trkpt><trkpt lat="45.9207440648357" lon="10.794177926427961"><ele>959.4285714285713</ele><time>2026-03-28T12:00:36Z</time></trkpt><trkpt lat="45.920803888037405" lon="10.794118158759774"><ele>958.1428571428571</ele><time>2026-03-28T12:00:45Z</time></trkpt><trkpt lat="45.92085254435191" lon="10.794054657024791"><ele>956.8571428571428</ele><time>2026-03-28T12:00:54Z</time></trkpt><trkpt lat="45.92090743262743" lon="10.79399870613966"><ele>955.5714285714284</ele><time>2026-03-28T12:01:26Z</time></trkpt><trkpt lat="45.92098160850583" lon="10.793996241735256"><ele>954.2857142857143</ele><time>2026-03-28T12:01:37Z</time></trkpt><trkpt lat="45.92106311123843" lon="10.794001310852858"><ele>953.0</ele><time>2026-03-28T12:01:46Z</time></trkpt><trkpt lat="45.92112782095515" lon="10.794040066956368"><ele>957.1428571428571</ele><time>2026-03-28T12:01:54Z</time></trkpt><trkpt lat="45.92121009092333" lon="10.794020322353806"><ele>961.2857142857142</ele><time>2026-03-28T12:02:02Z</time></trkpt><trkpt lat="45.92126209698167" lon="10.7939562500534"><ele>965.4285714285713</ele><time>2026-03-28T12:02:14Z</time></trkpt><trkpt lat="45.921325397776485" lon="10.793930937495539"><ele>969.5714285714286</ele><time>2026-03-28T12:03:00Z</time></trkpt><trkpt lat="45.92139814422191" lon="10.793924764183144"><ele>973.7142857142856</ele><time>2026-03-28T12:03:12Z</time></trkpt><trkpt lat="45.92146261707834" lon="10.793913884929937"><ele>977.8571428571428</ele><time>2026-03-28T12:03:19Z</time></trkpt><trkpt lat="45.9215172567208" lon="10.793851797853735"><ele>982.0</ele><time>2026-03-28T12:03:27Z</time></trkpt><trkpt lat="45.921581055446865" lon="10.793820627933814"><ele>982.0</ele><time>2026-03-28T12:03:35Z</time></trkpt><trkpt lat="45.921622192016265" lon="10.793750768112835"><ele>981.9999999999999</ele><time>2026-03-28T12:03:42Z</time></trkpt><trkpt lat="45.921683258346974" lon="10.793723373948973"><ele>982.0</ele><time>2026-03-28T12:03:49Z</time></trkpt><trkpt lat="45.921747560537504" lon="10.793723651826731"><ele>982.0</ele><time>2026-03-28T12:03:56Z</time></trkpt><trkpt lat="45.92179929514484" lon="10.793653617558808"><ele>981.9999999999999</ele><time>2026-03-28T12:04:06Z</time></trkpt><trkpt lat="45.921851546569734" lon="10.79359219580763"><ele>982.0</ele><time>2026-03-28T12:04:12Z</time></trkpt><trkpt lat="45.92186268754331" lon="10.793499706066536"><ele>982.0</ele><time>2026-03-28T12:04:18Z</time></trkpt><trkpt lat="45.921871930022036" lon="10.793409683918895"><ele>986.7142857142857</ele><time>2026-03-28T12:04:23Z</time></trkpt><trkpt lat="45.92191718645277" lon="10.793335317943209"><ele>991.4285714285713</ele><time>2026-03-28T12:04:34Z</time></trkpt><trkpt lat="45.921967936808954" lon="10.793253746025522"><ele>996.1428571428571</ele><time>2026-03-28T12:04:40Z</time></trkpt><trkpt lat="45.92198759569452" lon="10.793159404719066"><ele>1000.8571428571429</ele><time>2026-03-28T12:04:48Z</time></trkpt><trkpt lat="45.92197739171836" lon="10.79306266549372"><ele>1005.5714285714286</ele><time>2026-03-28T12:05:03Z</time></trkpt><trkpt lat="45.92199971408853" lon="10.79296348332522"><ele>1010.2857142857142</ele><time>2026-03-28T12:05:10Z</time></trkpt><trkpt lat="45.92202213098679" lon="10.79287411580025"><ele>1015.0</ele><time>2026-03-28T12:05:21Z</time></trkpt><trkpt lat="45.92205800299789" lon="10.792795524744031"><ele>1015.0</ele><time>2026-03-28T12:05:29Z</time></trkpt><trkpt lat="45.92211466229191" lon="10.79275559839445"><ele>1015.0</ele><time>2026-03-28T12:05:40Z</time></trkpt><trkpt lat="45.92215925223129" lon="10.792686309122775"><ele>1015.0</ele><time>2026-03-28T12:05:48Z</time></trkpt><trkpt lat="45.92218831299538" lon="10.792605158661008"><ele>1015.0</ele><time>2026-03-28T12:06:01Z</time></trkpt><trkpt lat="45.92220550923232" lon="10.792513534433152"><ele>1015.0</ele><time>2026-03-28T12:06:13Z</time></trkpt><trkpt lat="45.922217833655424" lon="10.792423858930071"><ele>1015.0</ele><time>2026-03-28T12:06:21Z</time></trkpt><trkpt lat="45.922266338765525" lon="10.792344711036629"><ele>1015.0</ele><time>2026-03-28T12:06:29Z</time></trkpt><trkpt lat="45.92228693149509" lon="10.792257982233764"><ele>1014.8571428571429</ele><time>2026-03-28T12:06:35Z</time></trkpt><trkpt lat="45.92229183303386" lon="10.792167261709883"><ele>1014.7142857142858</ele><time>2026-03-28T12:06:43Z</time></trkpt><trkpt lat="45.92228272073538" lon="10.792068236772739"><ele>1014.5714285714286</ele><time>2026-03-28T12:06:49Z</time></trkpt><trkpt lat="45.92228013833364" lon="10.791975951807633"><ele>1014.4285714285714</ele><time>2026-03-28T12:06:58Z</time></trkpt><trkpt lat="45.9222849827372" lon="10.791865991614852"><ele>1014.2857142857143</ele><time>2026-03-28T12:07:05.998Z</time></trkpt><trkpt lat="45.92230153276608" lon="10.79176646393369"><ele>1014.1428571428571</ele><time>2026-03-28T12:07:11.998Z</time></trkpt><trkpt lat="45.92232263256083" lon="10.791678399371"><ele>1014.0</ele><time>2026-03-28T12:07:17.999Z</time></trkpt><trkpt lat="45.92236777992382" lon="10.79161351427672"><ele>1013.7142857142857</ele><time>2026-03-28T12:07:21.999Z</time></trkpt><trkpt lat="45.922353174330865" lon="10.791513862911033"><ele>1013.4285714285716</ele><time>2026-03-28T12:07:29.999Z</time></trkpt><trkpt lat="45.92239017465698" lon="10.791437023334494"><ele>1013.1428571428572</ele><time>2026-03-28T12:07:36.999Z</time></trkpt><trkpt lat="45.92244766451066" lon="10.791380200215796"><ele>1012.8571428571429</ele><time>2026-03-28T12:07:42.999Z</time></trkpt><trkpt lat="45.92245898329903" lon="10.791275652234326"><ele>1012.5714285714287</ele><time>2026-03-28T12:07:52.999Z</time></trkpt><trkpt lat="45.92244300831483" lon="10.791179954225807"><ele>1012.2857142857144</ele><time>2026-03-28T12:07:59.999Z</time></trkpt><trkpt lat="45.922441437887464" lon="10.791079456851632"><ele>1012.0000000000001</ele><time>2026-03-28T12:08:03.999Z</time></trkpt><trkpt lat="45.92242344636443" lon="10.790985856862083"><ele>1012.5714285714287</ele><time>2026-03-28T12:08:10.999Z</time></trkpt><trkpt lat="45.922362736243656" lon="10.79091391159801"><ele>1013.1428571428571</ele><time>2026-03-28T12:08:24.999Z</time></trkpt><trkpt lat="45.922423773528465" lon="10.790860704644093"><ele>1013.7142857142858</ele><time>2026-03-28T12:08:44.999Z</time></trkpt><trkpt lat="45.92245626598168" lon="10.790777774724859"><ele>1014.2857142857143</ele><time>2026-03-28T12:08:50Z</time></trkpt><trkpt lat="45.92250075251767" lon="10.790680810737575"><ele>1014.8571428571429</ele><time>2026-03-28T12:09:05Z</time></trkpt><trkpt lat="45.92252654252166" lon="10.790594056685212"><ele>1015.4285714285714</ele><time>2026-03-28T12:09:12.999Z</time></trkpt><trkpt lat="45.922556684072525" lon="10.790495674290309"><ele>1016.0</ele><time>2026-03-28T12:09:18.999Z</time></trkpt><trkpt lat="45.92257811813215" lon="10.790409285004612"><ele>1020.1428571428571</ele><time>2026-03-28T12:09:24.999Z</time></trkpt><trkpt lat="45.92259516267306" lon="10.790313843743434"><ele>1024.2857142857142</ele><time>2026-03-28T12:09:32.999Z</time></trkpt><trkpt lat="45.9225969708661" lon="10.790208904456822"><ele>1028.4285714285713</ele><time>2026-03-28T12:09:40.999Z</time></trkpt><trkpt lat="45.9226234837778" lon="10.790122349784367"><ele>1032.5714285714284</ele><time>2026-03-28T12:09:47Z</time></trkpt><trkpt lat="45.922631130548595" lon="10.790022033776392"><ele>1036.7142857142856</ele><time>2026-03-28T12:09:53Z</time></trkpt><trkpt lat="45.92264241443787" lon="10.789925230142781"><ele>1040.857142857143</ele><time>2026-03-28T12:10:00Z</time></trkpt><trkpt lat="45.922663177582734" lon="10.78983069181261"><ele>1045.0</ele><time>2026-03-28T12:10:06Z</time></trkpt><trkpt lat="45.922689292028785" lon="10.78974481196531"><ele>1045.857142857143</ele><time>2026-03-28T12:10:13Z</time></trkpt><trkpt lat="45.92268289976031" lon="10.78965429690527"><ele>1046.7142857142856</ele><time>2026-03-28T12:10:18Z</time></trkpt><trkpt lat="45.9226837839536" lon="10.789551535779111"><ele>1047.5714285714284</ele><time>2026-03-28T12:10:24Z</time></trkpt><trkpt lat="45.922678031038764" lon="10.789453724645416"><ele>1048.4285714285713</ele><time>2026-03-28T12:10:30Z</time></trkpt><trkpt lat="45.922680262232156" lon="10.78935957537336"><ele>1049.2857142857142</ele><time>2026-03-28T12:10:36Z</time></trkpt><trkpt lat="45.9226399181228" lon="10.789280258197534"><ele>1050.142857142857</ele><time>2026-03-28T12:10:43Z</time></trkpt><trkpt lat="45.922640042123206" lon="10.789183612777824"><ele>1051.0</ele><time>2026-03-28T12:10:50Z</time></trkpt><trkpt lat="45.922644580330946" lon="10.789092576294715"><ele>1052.7142857142858</ele><time>2026-03-28T12:10:55Z</time></trkpt><trkpt lat="45.922632287332185" lon="10.789000043101888"><ele>1054.4285714285713</ele><time>2026-03-28T12:11:00Z</time></trkpt><trkpt lat="45.922627950919875" lon="10.788907250855965"><ele>1056.142857142857</ele><time>2026-03-28T12:11:06Z</time></trkpt><trkpt lat="45.922608433943886" lon="10.78881132107511"><ele>1057.857142857143</ele><time>2026-03-28T12:11:12Z</time></trkpt><trkpt lat="45.922620593789986" lon="10.788712328535066"><ele>1059.5714285714287</ele><time>2026-03-28T12:11:18.999Z</time></trkpt><trkpt lat="45.92259567701574" lon="10.788616130727227"><ele>1061.2857142857142</ele><time>2026-03-28T12:11:26Z</time></trkpt><trkpt lat="45.92260838448428" lon="10.788516646190843"><ele>1063.0</ele><time>2026-03-28T12:11:32Z</time></trkpt><trkpt lat="45.9225791033444" lon="10.788429868791873"><ele>1064.7142857142858</ele><time>2026-03-28T12:11:49Z</time></trkpt><trkpt lat="45.922616445808316" lon="10.788348564500263"><ele>1066.4285714285716</ele><time>2026-03-28T12:11:57Z</time></trkpt><trkpt lat="45.92260752509003" lon="10.788242998385563"><ele>1068.1428571428573</ele><time>2026-03-28T12:12:05Z</time></trkpt><trkpt lat="45.92258443251195" lon="10.788147664097233"><ele>1069.857142857143</ele><time>2026-03-28T12:12:12Z</time></trkpt><trkpt lat="45.92258066638543" lon="10.788052789300984"><ele>1071.5714285714287</ele><time>2026-03-28T12:12:19Z</time></trkpt><trkpt lat="45.92258347201154" lon="10.78794563414865"><ele>1073.2857142857144</ele><time>2026-03-28T12:12:27Z</time></trkpt><trkpt lat="45.92257642307442" lon="10.787847739924635"><ele>1075.0</ele><time>2026-03-28T12:12:35Z</time></trkpt><trkpt lat="45.922593340881726" lon="10.787758278625864"><ele>1054.0</ele><time>2026-03-28T12:12:41Z</time></trkpt><trkpt lat="45.922497678928444" lon="10.787168274287101"><ele>1033.0</ele><time>2026-03-28T12:13:50.997Z</time></trkpt><trkpt lat="45.92248021702703" lon="10.78707282691133"><ele>1033.0000000000002</ele><time>2026-03-28T12:13:55.998Z</time></trkpt><trkpt lat="45.92246309386389" lon="10.786985332751922"><ele>1033.0</ele><time>2026-03-28T12:14:00.998Z</time></trkpt><trkpt lat="45.92246181977375" lon="10.786886182474284"><ele>1033.0</ele><time>2026-03-28T12:14:06.998Z</time></trkpt><trkpt lat="45.922464410237176" lon="10.786784660674911"><ele>1033.0</ele><time>2026-03-28T12:14:11.998Z</time></trkpt><trkpt lat="45.922461666022905" lon="10.786678346904337"><ele>1033.0</ele><time>2026-03-28T12:14:17.999Z</time></trkpt><trkpt lat="45.9224792479954" lon="10.786573432746696"><ele>1033.0000000000002</ele><time>2026-03-28T12:14:22.999Z</time></trkpt><trkpt lat="45.922492603169" lon="10.786465589804447"><ele>1033.0</ele><time>2026-03-28T12:14:29.999Z</time></trkpt><trkpt lat="45.92250376958205" lon="10.786366331554845"><ele>1033.5714285714287</ele><time>2026-03-28T12:14:35.999Z</time></trkpt><trkpt lat="45.9225186175988" lon="10.786263185597639"><ele>1034.142857142857</ele><time>2026-03-28T12:14:41.999Z</time></trkpt><trkpt lat="45.922534678635245" lon="10.786171003740822"><ele>1034.7142857142858</ele><time>2026-03-28T12:14:46.999Z</time></trkpt><trkpt lat="45.922547640589464" lon="10.786058091846828"><ele>1035.2857142857142</ele><time>2026-03-28T12:14:53.999Z</time></trkpt><trkpt lat="45.92255911513361" lon="10.785960975759224"><ele>1035.857142857143</ele><time>2026-03-28T12:14:58.999Z</time></trkpt><trkpt lat="45.92257435044248" lon="10.785856524931276"><ele>1036.4285714285716</ele><time>2026-03-28T12:15:05Z</time></trkpt><trkpt lat="45.92260000094082" lon="10.785754406838066"><ele>1037.0</ele><time>2026-03-28T12:15:11Z</time></trkpt><trkpt lat="45.922610111563365" lon="10.785643713716837"><ele>1037.0</ele><time>2026-03-28T12:15:17Z</time></trkpt><trkpt lat="45.92260027561103" lon="10.785548795651733"><ele>1037.0</ele><time>2026-03-28T12:15:23Z</time></trkpt><trkpt lat="45.9225733648402" lon="10.785449246411124"><ele>1037.0</ele><time>2026-03-28T12:15:27.994Z</time></trkpt><trkpt lat="45.922550627197175" lon="10.785360754787279"><ele>1037.0</ele><time>2026-03-28T12:15:34.995Z</time></trkpt><trkpt lat="45.92252761029427" lon="10.78526439303807"><ele>1037.0</ele><time>2026-03-28T12:15:40.996Z</time></trkpt><trkpt lat="45.9225036753562" lon="10.785176801820882"><ele>1037.0</ele><time>2026-03-28T12:15:45.997Z</time></trkpt><trkpt lat="45.92247157998299" lon="10.785080502596536"><ele>1037.0</ele><time>2026-03-28T12:15:51.997Z</time></trkpt><trkpt lat="45.92243870134645" lon="10.784988095241294"><ele>1037.4285714285716</ele><time>2026-03-28T12:15:57.998Z</time></trkpt><trkpt lat="45.92240552259" lon="10.784900347442282"><ele>1037.857142857143</ele><time>2026-03-28T12:16:02.998Z</time></trkpt><trkpt lat="45.92237055074" lon="10.784824498330483"><ele>1038.2857142857142</ele><time>2026-03-28T12:16:07.999Z</time></trkpt><trkpt lat="45.922332126887234" lon="10.784749895477571"><ele>1038.7142857142858</ele><time>2026-03-28T12:16:12.999Z</time></trkpt><trkpt lat="45.922293889044255" lon="10.784669763908717"><ele>1039.142857142857</ele><time>2026-03-28T12:16:17.999Z</time></trkpt><trkpt lat="45.922262394231005" lon="10.784580069953567"><ele>1039.5714285714287</ele><time>2026-03-28T12:16:22.999Z</time></trkpt><trkpt lat="45.92223411881146" lon="10.784478497247756"><ele>1040.0</ele><time>2026-03-28T12:16:27.999Z</time></trkpt><trkpt lat="45.922200926645736" lon="10.784387188185672"><ele>1040.0</ele><time>2026-03-28T12:16:33Z</time></trkpt><trkpt lat="45.92215437661834" lon="10.78431325993899"><ele>1049.0</ele><time>2026-03-28T12:16:39Z</time></trkpt><trkpt lat="45.92208358657965" lon="10.784265436087004"><ele>1049.0</ele><time>2026-03-28T12:16:45Z</time></trkpt><trkpt lat="45.92200345287799" lon="10.784264527038884"><ele>1049.0</ele><time>2026-03-28T12:16:50Z</time></trkpt><trkpt lat="45.92194068413929" lon="10.784306820232612"><ele>1049.0</ele><time>2026-03-28T12:16:53Z</time></trkpt><trkpt lat="45.92190451269123" lon="10.784403813723854"><ele>1040.0</ele><time>2026-03-28T12:16:57Z</time></trkpt><trkpt lat="45.92190451269123" lon="10.784403813723854"><ele>1040.0</ele><time>2026-03-28T12:16:57Z</time></trkpt></trkseg></trk></gpx>